sensor_id;sensor_type;location;lat;lon;timestamp;pressure;altitude;pressure_sealevel;temperature;humidity
46412;BME280;32113;42.012;24.870;2023-05-15T00:02:00;99251.31;;;14.91;83.83
46412;BME280;32113;42.012;24.870;2023-05-15T00:04:26;99253.91;;;14.91;84.32
46412;BME280;32113;42.012;24.870;2023-05-15T00:06:51;99248.00;;;14.86;84.51
46412;BME280;32113;42.012;24.870;2023-05-15T00:09:17;99244.59;;;14.83;84.47
46412;BME280;32113;42.012;24.870;2023-05-15T00:11:42;99231.63;;;14.87;84.48
46412;BME280;32113;42.012;24.870;2023-05-15T00:14:07;99220.50;;;14.84;84.99
46412;BME280;32113;42.012;24.870;2023-05-15T00:16:33;99208.31;;;14.90;84.87
46412;BME280;32113;42.012;24.870;2023-05-15T00:18:58;99216.81;;;14.93;85.20
46412;BME280;32113;42.012;24.870;2023-05-15T00:21:23;99211.72;;;14.90;84.91
46412;BME280;32113;42.012;24.870;2023-05-15T00:23:48;99203.94;;;14.92;84.94
46412;BME280;32113;42.012;24.870;2023-05-15T00:26:14;99202.28;;;14.89;84.60
46412;BME280;32113;42.012;24.870;2023-05-15T00:28:40;99195.41;;;14.90;84.73
46412;BME280;32113;42.012;24.870;2023-05-15T00:31:05;99188.56;;;14.87;84.04
46412;BME280;32113;42.012;24.870;2023-05-15T00:33:30;99202.50;;;14.80;84.76
46412;BME280;32113;42.012;24.870;2023-05-15T00:35:55;99197.34;;;14.80;84.28
46412;BME280;32113;42.012;24.870;2023-05-15T00:38:21;99205.00;;;14.84;84.45
46412;BME280;32113;42.012;24.870;2023-05-15T00:40:46;99199.03;;;14.81;84.12
46412;BME280;32113;42.012;24.870;2023-05-15T00:43:12;99198.97;;;14.84;84.45
46412;BME280;32113;42.012;24.870;2023-05-15T00:45:38;99197.28;;;14.83;84.48
46412;BME280;32113;42.012;24.870;2023-05-15T00:48:06;99198.03;;;14.87;84.79
46412;BME280;32113;42.012;24.870;2023-05-15T00:50:32;99195.41;;;14.90;83.77
46412;BME280;32113;42.012;24.870;2023-05-15T00:52:58;99189.34;;;14.91;83.87
46412;BME280;32113;42.012;24.870;2023-05-15T00:55:24;99186.53;;;14.98;82.66
46412;BME280;32113;42.012;24.870;2023-05-15T00:57:50;99168.53;;;14.95;83.30
46412;BME280;32113;42.012;24.870;2023-05-15T01:00:16;99176.22;;;14.98;83.48
46412;BME280;32113;42.012;24.870;2023-05-15T01:02:42;99179.63;;;15.01;82.54
46412;BME280;32113;42.012;24.870;2023-05-15T01:05:08;99166.69;;;15.01;83.13
46412;BME280;32113;42.012;24.870;2023-05-15T01:07:34;99157.94;;;15.05;82.80
46412;BME280;32113;42.012;24.870;2023-05-15T01:10:03;99149.19;;;15.10;81.53
46412;BME280;32113;42.012;24.870;2023-05-15T01:12:30;99151.78;;;15.10;81.26
46412;BME280;32113;42.012;24.870;2023-05-15T01:14:56;99157.75;;;15.13;80.91
46412;BME280;32113;42.012;24.870;2023-05-15T01:17:21;99156.00;;;15.13;81.15
46412;BME280;32113;42.012;24.870;2023-05-15T01:19:47;99158.84;;;15.04;81.70
46412;BME280;32113;42.012;24.870;2023-05-15T01:22:33;99149.22;;;15.09;81.29
46412;BME280;32113;42.012;24.870;2023-05-15T01:25:11;99144.06;;;15.09;80.89
46412;BME280;32113;42.012;24.870;2023-05-15T01:27:44;99136.41;;;15.06;81.24
46412;BME280;32113;42.012;24.870;2023-05-15T01:35:37;99132.31;;;14.97;82.33
46412;BME280;32113;42.012;24.870;2023-05-15T01:38:18;99124.69;;;14.94;81.99
46412;BME280;32113;42.012;24.870;2023-05-15T01:40:44;99118.19;;;14.79;82.63
46412;BME280;32113;42.012;24.870;2023-05-15T01:43:14;99118.31;;;14.39;86.13
46412;BME280;32113;42.012;24.870;2023-05-15T01:45:40;99129.66;;;14.32;88.12
46412;BME280;32113;42.012;24.870;2023-05-15T01:48:07;99129.09;;;14.19;89.75
46412;BME280;32113;42.012;24.870;2023-05-15T01:50:33;99114.44;;;14.19;91.33
46412;BME280;32113;42.012;24.870;2023-05-15T01:52:59;99118.66;;;14.24;91.95
46412;BME280;32113;42.012;24.870;2023-05-15T01:55:25;99115.88;;;14.31;92.38
46412;BME280;32113;42.012;24.870;2023-05-15T01:57:51;99120.28;;;14.28;91.31
46412;BME280;32113;42.012;24.870;2023-05-15T02:00:17;99113.41;;;14.28;91.96
46412;BME280;32113;42.012;24.870;2023-05-15T02:02:43;99115.19;;;14.25;91.96
46412;BME280;32113;42.012;24.870;2023-05-15T02:05:10;99112.72;;;14.20;91.88
46412;BME280;32113;42.012;24.870;2023-05-15T02:07:36;99105.84;;;14.21;93.05
46412;BME280;32113;42.012;24.870;2023-05-15T02:10:02;99096.31;;;14.23;93.16
46412;BME280;32113;42.012;24.870;2023-05-15T02:12:27;99084.22;;;14.25;93.58
46412;BME280;32113;42.012;24.870;2023-05-15T02:14:54;99070.34;;;14.29;92.62
46412;BME280;32113;42.012;24.870;2023-05-15T02:17:22;99069.41;;;14.33;92.57
46412;BME280;32113;42.012;24.870;2023-05-15T02:19:47;99072.19;;;14.25;92.77
46412;BME280;32113;42.012;24.870;2023-05-15T02:22:13;99069.56;;;14.27;93.50
46412;BME280;32113;42.012;24.870;2023-05-15T02:24:38;99057.47;;;14.29;93.62
46412;BME280;32113;42.012;24.870;2023-05-15T02:27:06;99050.38;;;14.37;93.71
46412;BME280;32113;42.012;24.870;2023-05-15T02:32:30;99094.63;;;14.56;92.86
46412;BME280;32113;42.012;24.870;2023-05-15T02:35:18;99101.44;;;14.59;93.27
46412;BME280;32113;42.012;24.870;2023-05-15T02:37:47;99095.19;;;14.68;93.23
46412;BME280;32113;42.012;24.870;2023-05-15T02:40:13;99087.25;;;14.76;92.00
46412;BME280;32113;42.012;24.870;2023-05-15T02:42:39;99091.28;;;14.86;90.50
46412;BME280;32113;42.012;24.870;2023-05-15T02:45:06;99092.91;;;14.90;90.20
46412;BME280;32113;42.012;24.870;2023-05-15T02:47:32;99110.03;;;14.93;89.75
46412;BME280;32113;42.012;24.870;2023-05-15T02:49:57;99126.53;;;14.89;89.85
46412;BME280;32113;42.012;24.870;2023-05-15T02:52:23;99117.75;;;14.94;89.57
46412;BME280;32113;42.012;24.870;2023-05-15T02:54:49;99116.72;;;15.02;89.36
46412;BME280;32113;42.012;24.870;2023-05-15T02:57:14;99108.97;;;15.02;88.98
46412;BME280;32113;42.012;24.870;2023-05-15T02:59:39;99120.97;;;15.03;88.84
46412;BME280;32113;42.012;24.870;2023-05-15T03:02:05;99115.59;;;15.10;87.85
46412;BME280;32113;42.012;24.870;2023-05-15T03:04:30;99105.25;;;15.10;87.23
46412;BME280;32113;42.012;24.870;2023-05-15T03:06:55;99108.69;;;15.11;87.39
46412;BME280;32113;42.012;24.870;2023-05-15T03:09:21;99100.84;;;15.14;87.37
46412;BME280;32113;42.012;24.870;2023-05-15T03:11:46;99090.47;;;15.16;86.91
46412;BME280;32113;42.012;24.870;2023-05-15T03:14:11;99103.53;;;15.11;87.06
46412;BME280;32113;42.012;24.870;2023-05-15T03:16:36;99108.84;;;15.05;87.65
46412;BME280;32113;42.012;24.870;2023-05-15T03:19:03;99103.66;;;15.06;86.93
46412;BME280;32113;42.012;24.870;2023-05-15T03:21:28;99096.97;;;14.99;86.86
46412;BME280;32113;42.012;24.870;2023-05-15T03:23:53;99101.34;;;14.95;86.29
46412;BME280;32113;42.012;24.870;2023-05-15T03:26:19;99097.22;;;14.90;87.45
46412;BME280;32113;42.012;24.870;2023-05-15T03:28:44;99092.09;;;14.88;88.27
46412;BME280;32113;42.012;24.870;2023-05-15T03:31:09;99079.72;;;15.00;87.46
46412;BME280;32113;42.012;24.870;2023-05-15T03:33:35;99081.25;;;15.07;86.19
46412;BME280;32113;42.012;24.870;2023-05-15T03:36:00;99072.78;;;15.02;86.49
46412;BME280;32113;42.012;24.870;2023-05-15T03:38:25;99084.81;;;15.03;86.83
46412;BME280;32113;42.012;24.870;2023-05-15T03:40:51;99073.75;;;14.97;86.32
46412;BME280;32113;42.012;24.870;2023-05-15T03:43:16;99078.09;;;14.95;87.10
46412;BME280;32113;42.012;24.870;2023-05-15T03:45:41;99092.75;;;14.96;86.81
46412;BME280;32113;42.012;24.870;2023-05-15T03:48:06;99081.50;;;14.97;87.08
46412;BME280;32113;42.012;24.870;2023-05-15T03:50:32;99084.09;;;14.97;87.31
46412;BME280;32113;42.012;24.870;2023-05-15T03:52:57;99081.22;;;15.08;86.81
46412;BME280;32113;42.012;24.870;2023-05-15T03:55:22;99074.19;;;15.14;86.46
46412;BME280;32113;42.012;24.870;2023-05-15T03:57:48;99089.75;;;15.10;85.11
46412;BME280;32113;42.012;24.870;2023-05-15T04:00:13;99093.19;;;15.11;85.99
46412;BME280;32113;42.012;24.870;2023-05-15T04:02:39;99089.59;;;15.17;86.08
46412;BME280;32113;42.012;24.870;2023-05-15T04:05:05;99090.44;;;15.17;86.14
46412;BME280;32113;42.012;24.870;2023-05-15T04:07:31;99086.91;;;15.20;84.37
46412;BME280;32113;42.012;24.870;2023-05-15T04:09:57;99086.09;;;15.19;85.23
46412;BME280;32113;42.012;24.870;2023-05-15T04:12:26;99080.75;;;15.24;84.88
46412;BME280;32113;42.012;24.870;2023-05-15T04:14:53;99078.84;;;15.31;84.30
46412;BME280;32113;42.012;24.870;2023-05-15T04:17:18;99075.25;;;15.36;84.07
46412;BME280;32113;42.012;24.870;2023-05-15T04:19:44;99078.53;;;15.42;83.91
46412;BME280;32113;42.012;24.870;2023-05-15T04:22:11;99081.94;;;15.42;84.24
46412;BME280;32113;42.012;24.870;2023-05-15T04:24:37;99084.66;;;15.39;84.92
46412;BME280;32113;42.012;24.870;2023-05-15T04:27:03;99084.53;;;15.42;84.20
46412;BME280;32113;42.012;24.870;2023-05-15T04:29:28;99087.84;;;15.47;83.79
46412;BME280;32113;42.012;24.870;2023-05-15T04:31:53;99095.63;;;15.47;82.46
46412;BME280;32113;42.012;24.870;2023-05-15T04:34:19;99098.78;;;15.56;81.25
46412;BME280;32113;42.012;24.870;2023-05-15T04:36:44;99096.09;;;15.60;80.96
46412;BME280;32113;42.012;24.870;2023-05-15T04:39:09;99101.91;;;15.67;80.19
46412;BME280;32113;42.012;24.870;2023-05-15T04:41:35;99103.44;;;15.73;78.77
46412;BME280;32113;42.012;24.870;2023-05-15T04:44:00;99099.91;;;15.75;79.58
46412;BME280;32113;42.012;24.870;2023-05-15T04:46:25;99108.44;;;15.79;75.82
46412;BME280;32113;42.012;24.870;2023-05-15T04:48:51;99112.06;;;15.73;76.41
46412;BME280;32113;42.012;24.870;2023-05-15T04:51:16;99105.94;;;15.76;74.92
46412;BME280;32113;42.012;24.870;2023-05-15T04:53:41;99101.38;;;15.84;74.18
46412;BME280;32113;42.012;24.870;2023-05-15T04:56:06;99110.78;;;15.87;74.94
46412;BME280;32113;42.012;24.870;2023-05-15T04:58:32;99115.03;;;15.89;75.10
46412;BME280;32113;42.012;24.870;2023-05-15T05:00:57;99113.16;;;15.95;75.48
46412;BME280;32113;42.012;24.870;2023-05-15T05:03:22;99116.38;;;16.03;74.21
46412;BME280;32113;42.012;24.870;2023-05-15T05:05:48;99119.66;;;16.08;73.50
46412;BME280;32113;42.012;24.870;2023-05-15T05:08:13;99119.84;;;16.02;72.11
46412;BME280;32113;42.012;24.870;2023-05-15T05:10:38;99122.38;;;16.03;72.81
46412;BME280;32113;42.012;24.870;2023-05-15T05:13:04;99122.28;;;16.07;70.95
46412;BME280;32113;42.012;24.870;2023-05-15T05:15:29;99116.97;;;16.11;72.08
46412;BME280;32113;42.012;24.870;2023-05-15T05:17:54;99104.72;;;16.17;72.13
46412;BME280;32113;42.012;24.870;2023-05-15T05:20:19;99102.13;;;16.17;69.98
46412;BME280;32113;42.012;24.870;2023-05-15T05:22:45;99103.66;;;16.22;70.82
46412;BME280;32113;42.012;24.870;2023-05-15T05:25:10;99102.13;;;16.17;70.36
46412;BME280;32113;42.012;24.870;2023-05-15T05:27:35;99109.78;;;16.20;70.29
46412;BME280;32113;42.012;24.870;2023-05-15T05:30:01;99108.75;;;16.25;70.90
46412;BME280;32113;42.012;24.870;2023-05-15T05:32:26;99108.66;;;16.28;70.92
46412;BME280;32113;42.012;24.870;2023-05-15T05:34:51;99101.47;;;16.37;70.40
46412;BME280;32113;42.012;24.870;2023-05-15T05:37:16;99107.19;;;16.47;69.37
46412;BME280;32113;42.012;24.870;2023-05-15T05:39:42;99108.69;;;16.54;68.77
46412;BME280;32113;42.012;24.870;2023-05-15T05:42:07;99104.88;;;16.64;67.57
46412;BME280;32113;42.012;24.870;2023-05-15T05:44:32;99101.09;;;16.73;67.19
46412;BME280;32113;42.012;24.870;2023-05-15T05:46:58;99119.03;;;16.79;66.62
46412;BME280;32113;42.012;24.870;2023-05-15T05:49:23;99111.88;;;16.86;67.28
46412;BME280;32113;42.012;24.870;2023-05-15T05:51:49;99111.78;;;16.89;67.04
46412;BME280;32113;42.012;24.870;2023-05-15T05:54:14;99111.63;;;16.94;66.43
46412;BME280;32113;42.012;24.870;2023-05-15T05:56:40;99111.34;;;17.02;65.76
46412;BME280;32113;42.012;24.870;2023-05-15T05:59:06;99108.91;;;16.97;65.70
46412;BME280;32113;42.012;24.870;2023-05-15T06:01:31;99107.59;;;16.85;65.09
46412;BME280;32113;42.012;24.870;2023-05-15T06:03:56;99100.78;;;16.57;65.07
46412;BME280;32113;42.012;24.870;2023-05-15T06:06:22;99106.41;;;16.45;66.24
46412;BME280;32113;42.012;24.870;2023-05-15T06:08:47;99098.00;;;16.38;66.77
46412;BME280;32113;42.012;24.870;2023-05-15T06:11:12;99109.88;;;16.44;67.75
46412;BME280;32113;42.012;24.870;2023-05-15T06:13:37;99116.59;;;16.49;69.97
46412;BME280;32113;42.012;24.870;2023-05-15T06:16:03;99114.72;;;16.53;69.46
46412;BME280;32113;42.012;24.870;2023-05-15T06:18:29;99117.19;;;16.58;69.24
46412;BME280;32113;42.012;24.870;2023-05-15T06:20:54;99129.00;;;16.65;68.80
46412;BME280;32113;42.012;24.870;2023-05-15T06:23:19;99113.91;;;16.78;69.70
46412;BME280;32113;42.012;24.870;2023-05-15T06:25:45;99119.78;;;16.83;68.74
46412;BME280;32113;42.012;24.870;2023-05-15T06:28:10;99127.50;;;16.85;69.60
46412;BME280;32113;42.012;24.870;2023-05-15T06:30:35;99126.41;;;16.90;69.65
46412;BME280;32113;42.012;24.870;2023-05-15T06:33:00;99116.97;;;16.89;68.07
46412;BME280;32113;42.012;24.870;2023-05-15T06:35:26;99116.03;;;16.90;68.86
46412;BME280;32113;42.012;24.870;2023-05-15T06:37:51;99110.81;;;16.92;69.01
46412;BME280;32113;42.012;24.870;2023-05-15T06:40:17;99109.03;;;16.94;68.90
46412;BME280;32113;42.012;24.870;2023-05-15T06:42:42;99103.91;;;16.92;67.96
46412;BME280;32113;42.012;24.870;2023-05-15T06:45:08;99107.16;;;16.98;68.50
46412;BME280;32113;42.012;24.870;2023-05-15T06:47:33;99105.34;;;17.00;67.10
46412;BME280;32113;42.012;24.870;2023-05-15T06:49:58;99103.53;;;17.03;66.73
46412;BME280;32113;42.012;24.870;2023-05-15T06:52:24;99102.66;;;17.04;67.25
46412;BME280;32113;42.012;24.870;2023-05-15T06:54:49;99099.72;;;17.14;66.15
46412;BME280;32113;42.012;24.870;2023-05-15T06:57:16;99097.06;;;17.15;67.20
46412;BME280;32113;42.012;24.870;2023-05-15T06:59:41;99099.53;;;17.18;67.36
46412;BME280;32113;42.012;24.870;2023-05-15T07:02:06;99096.66;;;17.26;67.15
46412;BME280;32113;42.012;24.870;2023-05-15T07:04:31;99091.59;;;17.23;66.10
46412;BME280;32113;42.012;24.870;2023-05-15T07:06:57;99095.88;;;17.24;66.04
46412;BME280;32113;42.012;24.870;2023-05-15T07:09:22;99095.78;;;17.27;66.85
46412;BME280;32113;42.012;24.870;2023-05-15T07:11:48;99092.16;;;17.31;66.39
46412;BME280;32113;42.012;24.870;2023-05-15T07:14:13;99086.63;;;17.41;66.39
46412;BME280;32113;42.012;24.870;2023-05-15T07:16:39;99084.88;;;17.41;66.63
46412;BME280;32113;42.012;24.870;2023-05-15T07:19:04;99080.69;;;17.37;67.26
46412;BME280;32113;42.012;24.870;2023-05-15T07:21:29;99087.44;;;17.41;66.96
46412;BME280;32113;42.012;24.870;2023-05-15T07:23:55;99083.91;;;17.44;66.30
46412;BME280;32113;42.012;24.870;2023-05-15T07:26:20;99087.28;;;17.46;66.46
46412;BME280;32113;42.012;24.870;2023-05-15T07:28:46;99082.94;;;17.46;65.01
46412;BME280;32113;42.012;24.870;2023-05-15T07:31:11;99087.28;;;17.46;65.50
46412;BME280;32113;42.012;24.870;2023-05-15T07:33:36;99072.44;;;17.50;65.49
46412;BME280;32113;42.012;24.870;2023-05-15T07:36:01;99076.06;;;17.45;65.15
46412;BME280;32113;42.012;24.870;2023-05-15T07:38:27;99078.59;;;17.47;65.16
46412;BME280;32113;42.012;24.870;2023-05-15T07:40:52;99070.63;;;17.52;64.78
46412;BME280;32113;42.012;24.870;2023-05-15T07:43:17;99070.56;;;17.53;65.38
46412;BME280;32113;42.012;24.870;2023-05-15T07:45:42;99063.75;;;17.51;65.66
46412;BME280;32113;42.012;24.870;2023-05-15T07:48:17;99060.16;;;17.55;65.49
46412;BME280;32113;42.012;24.870;2023-05-15T07:50:43;99057.59;;;17.53;67.61
46412;BME280;32113;42.012;24.870;2023-05-15T07:53:10;99060.41;;;17.49;67.99
46412;BME280;32113;42.012;24.870;2023-05-15T07:55:35;99069.00;;;17.49;68.00
46412;BME280;32113;42.012;24.870;2023-05-15T07:58:00;99066.31;;;17.52;68.43
46412;BME280;32113;42.012;24.870;2023-05-15T08:00:26;99070.53;;;17.55;66.93
46412;BME280;32113;42.012;24.870;2023-05-15T08:02:51;99081.88;;;17.52;65.98
46412;BME280;32113;42.012;24.870;2023-05-15T08:05:16;99090.66;;;17.48;66.42
46412;BME280;32113;42.012;24.870;2023-05-15T08:07:42;99100.25;;;17.46;67.65
46412;BME280;32113;42.012;24.870;2023-05-15T08:10:07;99095.13;;;17.44;67.77
46412;BME280;32113;42.012;24.870;2023-05-15T08:12:32;99095.84;;;17.48;67.72
46412;BME280;32113;42.012;24.870;2023-05-15T08:14:58;99105.22;;;17.52;68.02
46412;BME280;32113;42.012;24.870;2023-05-15T08:17:23;99104.66;;;17.44;67.68
46412;BME280;32113;42.012;24.870;2023-05-15T08:19:49;99108.03;;;17.46;68.03
46412;BME280;32113;42.012;24.870;2023-05-15T08:22:14;99106.28;;;17.46;68.54
46412;BME280;32113;42.012;24.870;2023-05-15T08:24:40;99114.19;;;17.43;67.89
46412;BME280;32113;42.012;24.870;2023-05-15T08:27:05;99104.03;;;17.37;68.35
46412;BME280;32113;42.012;24.870;2023-05-15T08:29:32;99103.16;;;17.38;68.92
46412;BME280;32113;42.012;24.870;2023-05-15T08:31:57;99104.84;;;17.39;69.66
46412;BME280;32113;42.012;24.870;2023-05-15T08:34:22;99096.19;;;17.39;68.43
46412;BME280;32113;42.012;24.870;2023-05-15T08:36:48;99096.44;;;17.32;69.01
46412;BME280;32113;42.012;24.870;2023-05-15T08:39:13;99098.56;;;17.21;68.62
46412;BME280;32113;42.012;24.870;2023-05-15T08:41:45;99092.84;;;17.13;69.32
46412;BME280;32113;42.012;24.870;2023-05-15T08:44:11;99095.63;;;17.06;70.26
46412;BME280;32113;42.012;24.870;2023-05-15T08:46:37;99096.44;;;17.09;69.54
46412;BME280;32113;42.012;24.870;2023-05-15T08:49:05;99092.34;;;17.01;70.21
46412;BME280;32113;42.012;24.870;2023-05-15T08:51:35;99093.09;;;17.05;70.74
46412;BME280;32113;42.012;24.870;2023-05-15T08:54:01;99093.97;;;17.05;70.93
46412;BME280;32113;42.012;24.870;2023-05-15T08:56:26;99097.34;;;17.07;71.22
46412;BME280;32113;42.012;24.870;2023-05-15T08:58:51;99087.66;;;17.13;71.25
46412;BME280;32113;42.012;24.870;2023-05-15T09:01:17;99087.47;;;17.17;71.71
46412;BME280;32113;42.012;24.870;2023-05-15T09:03:42;99078.78;;;17.18;71.77
46412;BME280;32113;42.012;24.870;2023-05-15T09:06:07;99071.69;;;17.24;70.70
46412;BME280;32113;42.012;24.870;2023-05-15T09:08:34;99076.94;;;17.22;69.48
46412;BME280;32113;42.012;24.870;2023-05-15T09:11:00;99076.94;;;17.22;68.45
46412;BME280;32113;42.012;24.870;2023-05-15T09:13:26;99064.81;;;17.23;68.31
46412;BME280;32113;42.012;24.870;2023-05-15T09:15:52;99053.38;;;17.28;68.74
46412;BME280;32113;42.012;24.870;2023-05-15T09:18:17;99048.47;;;17.20;69.48
46412;BME280;32113;42.012;24.870;2023-05-15T09:20:43;99041.66;;;17.18;68.87
46412;BME280;32113;42.012;24.870;2023-05-15T09:23:20;99048.88;;;17.10;69.57
46412;BME280;32113;42.012;24.870;2023-05-15T09:25:46;99059.06;;;17.14;69.77
46412;BME280;32113;42.012;24.870;2023-05-15T09:28:27;99054.84;;;17.12;69.85
46412;BME280;32113;42.012;24.870;2023-05-15T09:30:56;99048.84;;;17.11;69.32
46412;BME280;32113;42.012;24.870;2023-05-15T09:33:26;99052.38;;;17.09;69.36
46412;BME280;32113;42.012;24.870;2023-05-15T09:35:51;99049.66;;;17.12;69.36
46412;BME280;32113;42.012;24.870;2023-05-15T09:38:17;99057.50;;;17.10;69.59
46412;BME280;32113;42.012;24.870;2023-05-15T09:40:43;99063.56;;;17.09;70.60
46412;BME280;32113;42.012;24.870;2023-05-15T09:43:09;99051.44;;;17.11;70.61
46412;BME280;32113;42.012;24.870;2023-05-15T09:45:34;99052.00;;;17.19;70.00
46412;BME280;32113;42.012;24.870;2023-05-15T09:48:00;99042.09;;;17.29;70.25
46412;BME280;32113;42.012;24.870;2023-05-15T09:50:32;99034.81;;;17.39;69.24
46412;BME280;32113;42.012;24.870;2023-05-15T09:52:58;99035.44;;;17.46;68.59
46412;BME280;32113;42.012;24.870;2023-05-15T09:55:23;99030.25;;;17.46;68.19
46412;BME280;32113;42.012;24.870;2023-05-15T09:58:08;99023.88;;;17.53;68.55
46412;BME280;32113;42.012;24.870;2023-05-15T10:00:35;99020.38;;;17.54;67.50
46412;BME280;32113;42.012;24.870;2023-05-15T10:03:01;99013.09;;;17.64;67.94
46412;BME280;32113;42.012;24.870;2023-05-15T10:05:26;99009.03;;;17.79;66.78
46412;BME280;32113;42.012;24.870;2023-05-15T10:07:55;99004.22;;;17.91;65.45
46412;BME280;32113;42.012;24.870;2023-05-15T10:10:21;99001.84;;;18.07;65.79
46412;BME280;32113;42.012;24.870;2023-05-15T10:12:46;98993.94;;;18.31;65.52
46412;BME280;32113;42.012;24.870;2023-05-15T10:15:13;98992.53;;;18.23;65.20
46412;BME280;32113;42.012;24.870;2023-05-15T10:17:39;98990.75;;;18.24;65.50
46412;BME280;32113;42.012;24.870;2023-05-15T10:20:05;98977.44;;;18.32;64.03
46412;BME280;32113;42.012;24.870;2023-05-15T10:22:31;98974.25;;;18.46;64.03
46412;BME280;32113;42.012;24.870;2023-05-15T10:27:41;98979.91;;;18.94;62.72
46412;BME280;32113;42.012;24.870;2023-05-15T10:30:07;98975.59;;;18.93;62.83
46412;BME280;32113;42.012;24.870;2023-05-15T10:32:33;98967.53;;;18.99;63.03
46412;BME280;32113;42.012;24.870;2023-05-15T10:34:59;98969.03;;;19.05;63.12
46412;BME280;32113;42.012;24.870;2023-05-15T10:37:24;98976.69;;;18.89;61.14
46412;BME280;32113;42.012;24.870;2023-05-15T10:39:51;98972.88;;;18.96;62.04
46412;BME280;32113;42.012;24.870;2023-05-15T10:42:17;98974.00;;;19.10;61.58
46412;BME280;32113;42.012;24.870;2023-05-15T10:44:43;98965.84;;;19.17;62.15
46412;BME280;32113;42.012;24.870;2023-05-15T10:47:08;98962.13;;;19.23;62.65
46412;BME280;32113;42.012;24.870;2023-05-15T10:49:33;98966.28;;;19.27;62.61
46412;BME280;32113;42.012;24.870;2023-05-15T10:52:00;98961.97;;;19.26;61.94
46412;BME280;32113;42.012;24.870;2023-05-15T10:54:28;98950.59;;;19.29;62.45
46412;BME280;32113;42.012;24.870;2023-05-15T10:56:56;98958.47;;;19.27;61.50
46412;BME280;32113;42.012;24.870;2023-05-15T10:59:29;98948.28;;;19.23;61.38
46412;BME280;32113;42.012;24.870;2023-05-15T11:01:54;98952.53;;;19.24;61.89
46412;BME280;32113;42.012;24.870;2023-05-15T11:04:21;98954.47;;;19.20;61.88
46412;BME280;32113;42.012;24.870;2023-05-15T11:06:47;98943.75;;;19.09;60.78
46412;BME280;32113;42.012;24.870;2023-05-15T11:09:32;98945.19;;;19.14;61.47
46412;BME280;32113;42.012;24.870;2023-05-15T11:11:58;98953.63;;;19.20;61.00
46412;BME280;32113;42.012;24.870;2023-05-15T11:17:02;98960.34;;;19.24;59.82
46412;BME280;32113;42.012;24.870;2023-05-15T11:21:56;98964.03;;;19.20;60.32
46412;BME280;32113;42.012;24.870;2023-05-15T11:24:46;98964.03;;;19.20;60.89
46412;BME280;32113;42.012;24.870;2023-05-15T11:27:07;98979.63;;;19.20;60.33
46412;BME280;32113;42.012;24.870;2023-05-15T11:29:36;98975.19;;;19.22;60.08
46412;BME280;32113;42.012;24.870;2023-05-15T11:32:01;98965.28;;;19.30;59.36
46412;BME280;32113;42.012;24.870;2023-05-15T11:34:31;98977.72;;;19.23;60.38
46412;BME280;32113;42.012;24.870;2023-05-15T11:36:57;98976.06;;;19.22;61.77
46412;BME280;32113;42.012;24.870;2023-05-15T11:39:24;98973.72;;;19.16;61.51
46412;BME280;32113;42.012;24.870;2023-05-15T11:41:50;98967.69;;;19.15;61.86
46412;BME280;32113;42.012;24.870;2023-05-15T11:44:21;98976.06;;;19.22;62.52
46412;BME280;32113;42.012;24.870;2023-05-15T11:46:47;98970.41;;;19.32;62.84
46412;BME280;32113;42.012;24.870;2023-05-15T11:49:12;98965.28;;;19.30;61.85
46412;BME280;32113;42.012;24.870;2023-05-15T11:51:39;98948.81;;;19.29;63.15
46412;BME280;32113;42.012;24.870;2023-05-15T11:54:07;98958.09;;;19.35;63.29
46412;BME280;32113;42.012;24.870;2023-05-15T11:56:34;98959.63;;;19.39;62.72
46412;BME280;32113;42.012;24.870;2023-05-15T11:58:59;98964.84;;;19.39;62.88
46412;BME280;32113;42.012;24.870;2023-05-15T12:01:37;98962.22;;;19.39;62.60
46412;BME280;32113;42.012;24.870;2023-05-15T12:04:02;98960.38;;;19.41;62.13
46412;BME280;32113;42.012;24.870;2023-05-15T12:06:35;98957.16;;;19.36;61.64
46412;BME280;32113;42.012;24.870;2023-05-15T12:09:00;98953.03;;;19.32;61.54
46412;BME280;32113;42.012;24.870;2023-05-15T12:11:25;98952.09;;;19.33;61.79
46412;BME280;32113;42.012;24.870;2023-05-15T12:13:51;98949.97;;;19.41;62.12
46412;BME280;32113;42.012;24.870;2023-05-15T12:16:17;98946.38;;;19.44;60.49
46412;BME280;32113;42.012;24.870;2023-05-15T12:18:47;98952.47;;;19.25;61.19
46412;BME280;32113;42.012;24.870;2023-05-15T12:21:12;98955.94;;;19.07;62.22
46412;BME280;32113;42.012;24.870;2023-05-15T12:23:37;98963.47;;;18.94;62.56
46412;BME280;32113;42.012;24.870;2023-05-15T12:26:03;98958.81;;;18.81;63.14
46412;BME280;32113;42.012;24.870;2023-05-15T12:28:28;98955.16;;;18.85;63.57
46412;BME280;32113;42.012;24.870;2023-05-15T12:30:54;98962.28;;;18.82;62.34
46412;BME280;32113;42.012;24.870;2023-05-15T12:33:20;98959.09;;;18.75;62.46
46412;BME280;32113;42.012;24.870;2023-05-15T12:35:49;98965.72;;;18.82;63.78
46412;BME280;32113;42.012;24.870;2023-05-15T12:38:17;98958.06;;;18.98;63.52
46412;BME280;32113;42.012;24.870;2023-05-15T12:40:42;98955.50;;;19.16;62.45
46412;BME280;32113;42.012;24.870;2023-05-15T12:43:09;98952.47;;;19.25;61.73
46412;BME280;32113;42.012;24.870;2023-05-15T12:45:36;98944.19;;;19.17;61.42
46412;BME280;32113;42.012;24.870;2023-05-15T12:48:02;98950.63;;;19.10;61.90
46412;BME280;32113;42.012;24.870;2023-05-15T12:50:27;98943.75;;;19.09;62.76
46412;BME280;32113;42.012;24.870;2023-05-15T12:52:57;98938.38;;;19.12;62.88
46412;BME280;32113;42.012;24.870;2023-05-15T12:57:49;98924.66;;;19.27;62.78
46412;BME280;32113;42.012;24.870;2023-05-15T13:00:14;98929.94;;;19.26;62.75
46412;BME280;32113;42.012;24.870;2023-05-15T13:02:43;98926.06;;;18.96;63.22
46412;BME280;32113;42.012;24.870;2023-05-15T13:05:09;98926.00;;;18.98;64.20